Time;durP1;ratioP1;P1;durP2;ratioP2;P2;SDS_P1;SDS_P2;PMS_P1;PMS_P2;Temp;Humidity;BMP_temperature;BMP_pressure;BME280_temperature;BME280_humidity;BME280_pressure;Samples;Min_cycle;Max_cycle;Signal;HPM_P1;HPM_P2
2021/11/28 00:01:16;;;;;;;49.75;29.25;;;;;;;2.65;79.22;99398.80;1680895;84;21164;-81
2021/11/28 00:03:43;;;;;;;50.23;27.90;;;;;;;2.64;79.22;99397.90;1680654;84;21097;-80
2021/11/28 00:06:23;;;;;;;46.18;27.05;;;;;;;2.66;79.14;99399.26;1680860;85;21116;-80
2021/11/28 00:11:34;;;;;;;46.70;26.30;;;;;;;2.66;79.12;99382.38;1680677;85;21824;-80
2021/11/28 00:14:09;;;;;;;44.75;27.07;;;;;;;2.65;79.07;99374.13;1680740;85;21104;-80
2021/11/28 00:16:32;;;;;;;43.42;26.52;;;;;;;2.62;79.12;99371.41;1680101;83;21595;-82
2021/11/28 00:18:59;;;;;;;44.88;25.95;;;;;;;2.60;79.07;99374.38;1680888;85;21178;-82
2021/11/28 00:21:26;;;;;;;45.10;25.95;;;;;;;2.57;79.20;99372.95;1681258;85;21073;-82
2021/11/28 00:23:52;;;;;;;42.30;25.20;;;;;;;2.55;79.24;99380.69;1681111;84;21239;-81
2021/11/28 00:26:19;;;;;;;42.03;25.85;;;;;;;2.56;79.30;99385.49;1680753;84;21034;-82
2021/11/28 00:28:46;;;;;;;43.70;26.75;;;;;;;2.55;79.37;99373.32;1681044;84;21674;-82
2021/11/28 00:31:12;;;;;;;48.05;28.25;;;;;;;2.57;79.34;99374.26;1680788;84;21423;-82
2021/11/28 00:33:39;;;;;;;52.38;29.92;;;;;;;2.57;79.34;99374.26;1680719;83;21605;-82
2021/11/28 00:36:06;;;;;;;55.08;31.20;;;;;;;2.58;79.40;99374.31;1680884;85;21813;-81
2021/11/28 00:38:32;;;;;;;56.45;31.87;;;;;;;2.60;79.33;99371.78;1680805;85;21335;-81
2021/11/28 00:40:59;;;;;;;56.33;31.80;;;;;;;2.61;79.35;99373.53;1680846;84;21610;-80
2021/11/28 00:43:25;;;;;;;56.28;30.65;;;;;;;2.62;79.35;99372.70;1680986;84;21100;-81
2021/11/28 00:45:52;;;;;;;63.50;34.65;;;;;;;2.60;79.33;99382.17;1680987;85;21124;-81
2021/11/28 00:48:19;;;;;;;65.20;35.13;;;;;;;2.58;79.31;99380.81;1680936;85;21783;-81
2021/11/28 00:50:46;;;;;;;72.08;37.33;;;;;;;2.60;79.45;99392.56;1680900;85;21140;-83
2021/11/28 00:53:16;;;;;;;70.37;39.42;;;;;;;2.66;79.58;99404.45;1680940;85;21626;-81
2021/11/28 00:55:43;;;;;;;67.62;37.60;;;;;;;2.68;79.55;99402.79;1680529;84;21365;-82
2021/11/28 00:58:10;;;;;;;81.12;41.08;;;;;;;2.73;79.60;99409.03;1674024;85;21031;-81
2021/11/28 01:00:38;;;;;;;65.08;37.05;;;;;;;2.78;79.63;99411.78;1673210;85;21885;-82
2021/11/28 01:03:06;;;;;;;63.63;37.75;;;;;;;2.81;79.61;99415.80;1672934;85;21376;-81
2021/11/28 01:05:33;;;;;;;64.87;35.60;;;;;;;2.82;79.54;99409.78;1672900;85;21144;-82
2021/11/28 01:07:59;;;;;;;66.45;36.48;;;;;;;2.85;79.58;99415.97;1672778;85;21082;-81
2021/11/28 01:10:26;;;;;;;61.08;34.20;;;;;;;2.87;79.61;99413.01;1673040;85;21105;-81
2021/11/28 01:12:53;;;;;;;57.45;33.63;;;;;;;2.88;79.57;99423.85;1672844;85;21877;-81
2021/11/28 01:15:20;;;;;;;54.23;31.57;;;;;;;2.89;79.54;99425.63;1672842;85;21069;-80
2021/11/28 01:17:48;;;;;;;57.50;32.05;;;;;;;2.90;79.64;99426.08;1672934;85;21146;-80
2021/11/28 01:20:15;;;;;;;58.13;32.98;;;;;;;2.92;79.65;99414.02;1672963;85;21093;-81
2021/11/28 01:22:41;;;;;;;60.50;33.90;;;;;;;2.93;79.53;99404.53;1673001;85;21101;-81
2021/11/28 01:25:11;;;;;;;66.67;37.10;;;;;;;2.90;79.48;99403.12;1672903;85;21763;-81
2021/11/28 01:27:37;;;;;;;71.30;37.98;;;;;;;2.88;79.42;99402.19;1650315;85;21109;-83
2021/11/28 01:30:06;;;;;;;68.10;36.17;;;;;;;2.88;79.46;99401.76;1673370;85;21092;-83
2021/11/28 01:32:35;;;;;;;66.50;35.38;;;;;;;2.88;79.36;99393.09;1673332;85;21117;-82
2021/11/28 01:35:06;;;;;;;64.97;35.45;;;;;;;2.89;79.42;99384.44;1673308;85;21069;-83
2021/11/28 01:37:35;;;;;;;64.15;35.70;;;;;;;2.90;79.43;99388.40;1672182;85;21738;-83
2021/11/28 01:40:05;;;;;;;73.33;38.30;;;;;;;2.94;79.48;99400.20;1673250;85;21160;-83
2021/11/28 01:42:41;;;;;;;67.95;35.83;;;;;;;2.93;79.44;99398.03;1672901;85;21089;-82
2021/11/28 01:45:14;;;;;;;68.47;36.68;;;;;;;2.97;79.49;99392.53;1649528;85;21124;-82
2021/11/28 01:47:40;;;;;;;68.10;35.95;;;;;;;3.00;79.45;99392.61;1673414;85;21164;-83
2021/11/28 01:50:07;;;;;;;76.17;39.48;;;;;;;3.04;79.52;99395.38;1673254;85;21761;-83
2021/11/28 01:52:37;;;;;;;78.05;38.67;;;;;;;3.08;79.39;99398.54;1673352;85;21148;-83
2021/11/28 01:55:09;;;;;;;81.25;41.68;;;;;;;3.11;79.42;99403.82;1673439;85;21157;-83
2021/11/28 01:57:36;;;;;;;78.85;41.23;;;;;;;3.11;79.27;99412.92;1675199;85;21737;-83
2021/11/28 02:00:10;;;;;;;81.72;40.88;;;;;;;3.09;79.25;99417.19;1678340;85;21148;-83
2021/11/28 02:02:36;;;;;;;76.00;39.03;;;;;;;3.11;79.31;99419.84;1678545;84;21941;-83
2021/11/28 02:05:03;;;;;;;73.28;40.38;;;;;;;3.09;79.21;99419.79;1678230;85;21152;-83
2021/11/28 02:07:32;;;;;;;75.03;40.55;;;;;;;3.11;79.29;99412.05;1649516;85;21339;-83
2021/11/28 02:09:58;;;;;;;72.85;38.90;;;;;;;3.11;79.21;99409.02;1629323;85;21564;-82
2021/11/28 02:12:29;;;;;;;72.35;39.10;;;;;;;3.13;79.25;99408.20;1678150;85;21085;-82
2021/11/28 02:14:54;;;;;;;84.25;42.33;;;;;;;3.11;79.17;99407.72;1652505;86;22683;-83
2021/11/28 02:17:21;;;;;;;103.00;47.43;;;;;;;3.14;79.26;99408.26;1652659;86;21042;-83
2021/11/28 02:19:47;;;;;;;81.82;42.45;;;;;;;3.15;79.21;99411.30;1652609;86;21590;-82
2021/11/28 02:22:14;;;;;;;88.47;44.00;;;;;;;3.15;79.21;99398.31;1652523;86;21097;-82
2021/11/28 02:24:41;;;;;;;80.32;41.40;;;;;;;3.16;79.17;99387.52;1652410;86;21108;-83
2021/11/28 02:27:08;;;;;;;82.35;42.30;;;;;;;3.18;79.20;99381.95;1652506;86;21809;-83
2021/11/28 02:29:40;;;;;;;79.20;42.78;;;;;;;3.19;79.16;99377.19;1652534;86;21165;-82
2021/11/28 02:32:08;;;;;;;94.47;45.00;;;;;;;3.21;79.17;99367.72;1652501;86;21112;-83
2021/11/28 02:34:35;;;;;;;85.47;44.88;;;;;;;3.22;79.19;99369.08;1652550;86;21142;-82
2021/11/28 02:37:01;;;;;;;91.40;47.00;;;;;;;3.24;79.20;99363.93;1652610;86;21100;-83
2021/11/28 02:39:28;;;;;;;83.45;44.42;;;;;;;3.22;79.07;99367.78;1652652;86;21782;-83
2021/11/28 02:41:55;;;;;;;88.92;45.28;;;;;;;3.24;79.16;99373.03;1652673;86;21085;-83
2021/11/28 02:44:21;;;;;;;89.97;45.43;;;;;;;3.24;79.17;99362.20;1652628;86;21603;-82
2021/11/28 02:46:51;;;;;;;86.47;45.45;;;;;;;3.26;79.19;99365.73;1652342;86;21116;-82
2021/11/28 02:49:21;;;;;;;83.52;44.33;;;;;;;3.25;79.14;99370.48;1652522;86;21756;-82
2021/11/28 02:51:47;;;;;;;83.95;44.80;;;;;;;3.27;79.10;99375.74;1652342;86;21800;-83
2021/11/28 02:54:14;;;;;;;81.30;44.10;;;;;;;3.28;79.12;99379.70;1652369;86;21161;-82
2021/11/28 02:56:42;;;;;;;79.17;44.70;;;;;;;3.29;79.08;99377.55;1652297;86;21180;-82
2021/11/28 02:59:09;;;;;;;81.30;42.35;;;;;;;3.29;78.92;99392.28;1651907;86;21455;-82
2021/11/28 03:01:35;;;;;;;84.13;43.83;;;;;;;3.25;78.90;99387.39;1652389;86;21136;-83
2021/11/28 03:04:02;;;;;;;82.82;43.55;;;;;;;3.23;78.91;99387.77;1652252;86;21841;-83
2021/11/28 03:06:32;;;;;;;78.92;41.20;;;;;;;3.23;78.91;99377.75;1652423;86;21093;-83
2021/11/28 03:09:00;;;;;;;74.05;39.65;;;;;;;3.21;78.89;99376.43;1652093;86;21104;-83
2021/11/28 03:11:26;;;;;;;81.55;41.02;;;;;;;3.23;78.93;99369.95;1652455;86;21093;-83
2021/11/28 03:13:53;;;;;;;85.40;43.50;;;;;;;3.22;78.89;99369.08;1652545;86;21224;-83
2021/11/28 03:16:22;;;;;;;82.57;43.75;;;;;;;3.23;78.88;99375.16;1652492;86;21773;-82
2021/11/28 03:18:50;;;;;;;81.50;43.42;;;;;;;3.22;78.89;99378.60;1652588;86;21054;-83
2021/11/28 03:21:23;;;;;;;87.45;42.78;;;;;;;3.25;78.92;99381.31;1652698;86;21156;-84
2021/11/28 03:23:50;;;;;;;82.25;41.15;;;;;;;3.27;78.80;99379.64;1652484;86;21042;-83
2021/11/28 03:26:24;;;;;;;78.95;41.95;;;;;;;3.25;78.73;99382.19;1652399;86;21173;-83
2021/11/28 03:29:00;;;;;;;78.90;40.10;;;;;;;3.23;78.65;99381.26;1652502;86;21832;-83
2021/11/28 03:31:29;;;;;;;87.78;44.83;;;;;;;3.22;78.66;99390.30;1652554;86;21180;-84
2021/11/28 03:33:56;;;;;;;82.33;42.50;;;;;;;3.19;78.60;99396.30;1652546;86;21181;-83
2021/11/28 03:36:26;;;;;;;82.02;43.13;;;;;;;3.18;78.69;99400.15;1625993;86;21590;-84
2021/11/28 03:38:52;;;;;;;82.92;43.10;;;;;;;3.17;78.67;99399.66;1652663;86;21105;-84
2021/11/28 03:41:20;;;;;;;74.45;40.38;;;;;;;3.15;78.64;99409.13;1652530;86;22396;-83
2021/11/28 03:43:51;;;;;;;81.82;42.20;;;;;;;3.12;78.64;99398.23;1652366;86;21133;-83
2021/11/28 03:46:17;;;;;;;80.42;40.28;;;;;;;3.11;78.64;99402.52;1652031;86;21109;-83
2021/11/28 03:48:43;;;;;;;78.52;38.75;;;;;;;3.11;78.59;99399.92;1652523;86;21169;-83
2021/11/28 03:51:10;;;;;;;75.92;40.60;;;;;;;3.08;78.56;99396.37;1652510;86;21097;-83
2021/11/28 03:53:39;;;;;;;82.53;39.67;;;;;;;3.06;78.51;99391.50;1652297;86;21765;-82
2021/11/28 03:56:07;;;;;;;84.80;42.78;;;;;;;3.05;78.48;99390.63;1652402;86;21113;-83
2021/11/28 03:58:34;;;;;;;82.20;41.48;;;;;;;3.04;78.50;99403.57;1652433;86;21117;-83
2021/11/28 04:01:02;;;;;;;70.85;39.88;;;;;;;3.02;78.47;99390.94;1652332;86;21093;-83
2021/11/28 04:03:28;;;;;;;80.67;40.17;;;;;;;3.03;78.48;99392.72;1652621;86;21104;-83
2021/11/28 04:05:55;;;;;;;82.82;41.08;;;;;;;3.00;78.41;99393.91;1652754;86;21780;-83
2021/11/28 04:08:22;;;;;;;78.67;39.73;;;;;;;2.99;78.41;99391.73;1652571;86;21069;-83
2021/11/28 04:10:49;;;;;;;82.47;39.27;;;;;;;2.99;78.46;99382.63;1652612;86;21590;-83
2021/11/28 04:13:16;;;;;;;74.03;38.53;;;;;;;2.96;78.29;99379.05;1652556;86;21210;-83
2021/11/28 04:15:47;;;;;;;77.12;39.13;;;;;;;2.95;78.39;99378.17;1652229;86;21050;-82
2021/11/28 04:18:14;;;;;;;71.72;37.28;;;;;;;2.96;78.42;99374.72;1652574;86;21563;-82
2021/11/28 04:20:42;;;;;;;77.85;39.33;;;;;;;2.96;78.36;99366.92;1652611;86;21088;-83
2021/11/28 04:23:09;;;;;;;74.27;38.28;;;;;;;2.96;78.27;99364.33;1652503;86;21679;-83
2021/11/28 04:25:36;;;;;;;80.25;39.13;;;;;;;2.92;78.25;99369.84;1652415;86;21203;-83
2021/11/28 04:28:03;;;;;;;78.02;38.78;;;;;;;2.89;78.28;99364.56;1652425;86;21112;-82
2021/11/28 04:30:30;;;;;;;82.08;38.10;;;;;;;2.89;78.34;99374.95;1652534;86;22680;-83
2021/11/28 04:32:56;;;;;;;81.02;38.35;;;;;;;2.85;78.31;99373.48;1652380;86;21591;-83
2021/11/28 04:35:23;;;;;;;85.42;39.53;;;;;;;2.86;78.30;99379.16;1652227;86;21116;-83
2021/11/28 04:37:50;;;;;;;77.03;37.30;;;;;;;2.84;78.32;99382.13;1652329;86;21109;-83
2021/11/28 04:40:16;;;;;;;78.50;37.93;;;;;;;2.83;78.31;99389.02;1652699;86;21681;-83
2021/11/28 04:42:43;;;;;;;75.15;37.10;;;;;;;2.81;78.32;99389.81;1652627;86;22333;-82
2021/11/28 04:45:10;;;;;;;78.22;37.10;;;;;;;2.83;78.42;99394.64;1652454;86;21217;-82
2021/11/28 04:47:37;;;;;;;79.47;38.02;;;;;;;2.85;78.35;99396.48;1652437;86;21104;-82
2021/11/28 04:50:06;;;;;;;75.87;37.48;;;;;;;2.85;78.32;99388.69;1652517;86;21097;-83
2021/11/28 04:52:32;;;;;;;71.00;35.98;;;;;;;2.84;78.42;99388.20;1652617;86;21140;-83
2021/11/28 04:54:59;;;;;;;73.87;37.70;;;;;;;2.88;78.48;99403.48;1652457;86;21611;-83
2021/11/28 04:57:25;;;;;;;86.92;40.75;;;;;;;2.90;78.43;99407.02;1652473;86;21157;-83
2021/11/28 04:59:52;;;;;;;84.90;38.90;;;;;;;2.92;78.39;99404.05;1651097;86;21096;-83
2021/11/28 05:02:19;;;;;;;83.87;40.20;;;;;;;2.93;78.44;99403.23;1651272;86;21234;-83
2021/11/28 05:04:45;;;;;;;81.47;38.92;;;;;;;2.94;78.36;99403.69;1651589;86;21120;-83
2021/11/28 05:07:12;;;;;;;85.07;41.13;;;;;;;2.96;78.36;99399.84;1651681;86;22525;-82
2021/11/28 05:09:42;;;;;;;84.07;39.85;;;;;;;2.95;78.36;99401.56;1651694;86;21583;-82
2021/11/28 05:12:09;;;;;;;79.10;39.48;;;;;;;2.98;78.42;99396.88;1681738;85;21167;-83
2021/11/28 05:14:35;;;;;;;77.45;39.73;;;;;;;3.01;78.40;99393.09;1681868;83;21104;-83
2021/11/28 05:17:03;;;;;;;81.75;40.52;;;;;;;3.02;78.44;99389.25;1681707;85;21100;-83
2021/11/28 05:19:30;;;;;;;84.05;40.17;;;;;;;3.04;78.41;99391.48;1681450;85;21753;-82
2021/11/28 05:21:56;;;;;;;88.07;41.18;;;;;;;3.03;78.41;99391.00;1681722;83;21053;-82
2021/11/28 05:24:23;;;;;;;85.85;40.15;;;;;;;3.03;78.32;99392.72;1681641;85;21072;-83
2021/11/28 05:26:50;;;;;;;84.87;39.83;;;;;;;2.99;78.32;99394.76;1681751;84;21029;-82
2021/11/28 05:29:18;;;;;;;86.95;43.05;;;;;;;2.99;78.36;99403.86;1681775;83;21069;-83
2021/11/28 05:31:45;;;;;;;96.97;43.10;;;;;;;2.98;78.29;99396.88;1681601;84;21802;-83
2021/11/28 05:34:12;;;;;;;90.50;41.45;;;;;;;2.97;78.37;99396.42;1681607;85;21144;-83
2021/11/28 05:36:38;;;;;;;85.80;41.55;;;;;;;2.98;78.44;99391.67;1681694;84;21666;-83
2021/11/28 05:39:05;;;;;;;88.60;43.48;;;;;;;2.99;78.46;99396.94;1681788;84;21073;-83
2021/11/28 05:41:32;;;;;;;90.17;42.33;;;;;;;3.01;78.49;99402.19;1681748;85;21092;-82
2021/11/28 05:43:58;;;;;;;89.58;43.42;;;;;;;3.02;78.48;99398.34;1681705;84;22570;-82
2021/11/28 05:46:25;;;;;;;89.07;42.83;;;;;;;3.05;78.53;99405.35;1681741;85;21030;-83
2021/11/28 05:48:52;;;;;;;90.40;44.27;;;;;;;3.07;78.48;99407.16;1681678;83;22117;-83
2021/11/28 05:51:18;;;;;;;92.20;44.40;;;;;;;3.08;78.42;99410.66;1681772;84;21133;-83
2021/11/28 05:53:45;;;;;;;95.90;47.38;;;;;;;3.11;78.50;99425.92;1681556;85;21136;-83
2021/11/28 05:56:12;;;;;;;92.05;44.35;;;;;;;3.14;78.54;99435.56;1681481;85;21241;-83
2021/11/28 05:58:39;;;;;;;97.80;48.63;;;;;;;3.13;78.46;99436.37;1680253;84;21117;-82
2021/11/28 06:01:06;;;;;;;89.40;44.70;;;;;;;3.14;78.48;99435.98;1677724;85;21121;-83
2021/11/28 06:03:32;;;;;;;90.53;46.60;;;;;;;3.14;78.51;99433.38;1678120;84;21606;-82
2021/11/28 06:05:59;;;;;;;105.03;50.12;;;;;;;3.14;78.48;99432.09;1678144;85;21144;-83
2021/11/28 06:08:26;;;;;;;97.70;48.55;;;;;;;3.12;78.51;99426.83;1678113;85;21765;-83
2021/11/28 06:10:52;;;;;;;97.95;47.67;;;;;;;3.13;78.54;99434.20;1678109;85;21145;-82
2021/11/28 06:13:19;;;;;;;98.22;47.73;;;;;;;3.10;78.52;99433.27;1678101;84;21102;-83
2021/11/28 06:15:49;;;;;;;96.35;46.40;;;;;;;3.10;78.55;99432.39;1678407;85;21550;-83
2021/11/28 06:18:15;;;;;;;101.55;49.53;;;;;;;3.07;78.52;99433.58;1677838;84;21128;-83
2021/11/28 06:20:42;;;;;;;103.10;50.33;;;;;;;3.04;78.57;99438.27;1678138;84;21773;-82
2021/11/28 06:23:24;;;;;;;99.87;49.45;;;;;;;3.04;78.67;99441.27;1677979;85;21319;-83
2021/11/28 06:25:53;;;;;;;101.85;48.00;;;;;;;3.01;78.61;99435.55;1675717;84;21156;-83
2021/11/28 06:28:20;;;;;;;99.75;46.30;;;;;;;3.01;78.69;99432.95;1678027;85;21128;-83
2021/11/28 06:30:47;;;;;;;100.92;48.95;;;;;;;2.99;78.66;99433.75;1678108;84;21112;-83
2021/11/28 06:33:14;;;;;;;97.27;45.25;;;;;;;2.99;78.77;99430.72;1677972;85;21853;-83
2021/11/28 06:35:40;;;;;;;88.87;44.30;;;;;;;3.00;78.79;99438.09;1692908;84;21201;-83
2021/11/28 06:38:07;;;;;;;90.83;44.13;;;;;;;3.01;78.83;99434.68;1666322;84;21619;-82
2021/11/28 06:40:34;;;;;;;86.82;43.08;;;;;;;3.00;78.87;99434.20;1696072;83;21109;-84
2021/11/28 06:43:00;;;;;;;89.15;42.00;;;;;;;3.02;78.88;99431.23;1696157;84;21046;-83
2021/11/28 06:45:27;;;;;;;86.12;43.13;;;;;;;3.05;78.99;99430.92;1695831;84;22479;-78
2021/11/28 06:47:54;;;;;;;80.10;41.68;;;;;;;3.09;79.07;99423.69;1695631;84;21125;-78
2021/11/28 06:50:20;;;;;;;96.78;48.50;;;;;;;3.11;78.97;99427.64;1692664;83;21544;-79
2021/11/28 06:52:51;;;;;;;92.20;46.15;;;;;;;3.11;78.94;99431.12;1677630;85;21083;-78
2021/11/28 06:55:18;;;;;;;87.45;43.60;;;;;;;3.14;78.93;99434.26;1677875;85;21778;-78
2021/11/28 06:57:48;;;;;;;86.12;42.17;;;;;;;3.15;78.96;99433.41;1677796;85;22552;-78
2021/11/28 07:00:17;;;;;;;83.33;43.83;;;;;;;3.16;78.94;99434.31;1677272;84;21597;-78
2021/11/28 07:02:44;;;;;;;81.17;40.58;;;;;;;3.22;79.10;99437.11;1677142;85;21078;-78
2021/11/28 07:05:10;;;;;;;77.03;39.92;;;;;;;3.24;78.97;99440.22;1677509;85;21098;-79
2021/11/28 07:07:37;;;;;;;80.40;41.00;;;;;;;3.26;79.00;99438.55;1677600;85;21121;-79
2021/11/28 07:10:05;;;;;;;78.92;40.12;;;;;;;3.30;79.00;99442.14;1677645;85;21772;-78
2021/11/28 07:12:32;;;;;;;82.62;40.73;;;;;;;3.31;78.94;99442.19;1677646;85;21736;-79
2021/11/28 07:14:58;;;;;;;78.02;40.60;;;;;;;3.32;78.87;99453.47;1677763;85;21174;-79
2021/11/28 07:17:28;;;;;;;78.83;41.37;;;;;;;3.32;78.85;99446.97;1677501;85;21268;-77
2021/11/28 07:19:55;;;;;;;85.42;44.23;;;;;;;3.32;78.81;99457.38;1677803;85;21119;-78
2021/11/28 07:22:21;;;;;;;86.45;43.95;;;;;;;3.31;78.82;99454.33;1677928;85;21827;-78
2021/11/28 07:24:48;;;;;;;94.25;46.05;;;;;;;3.31;78.87;99468.20;1677762;85;21098;-78
2021/11/28 07:27:15;;;;;;;90.55;44.55;;;;;;;3.34;78.92;99463.54;1677723;85;21059;-77
2021/11/28 07:29:42;;;;;;;89.07;44.08;;;;;;;3.37;78.91;99458.84;1677704;85;21131;-78
2021/11/28 07:32:08;;;;;;;83.85;43.92;;;;;;;3.41;78.92;99469.81;1650028;85;21114;-77
2021/11/28 07:34:38;;;;;;;86.45;42.25;;;;;;;3.47;79.19;99472.60;1649097;86;21823;-78
2021/11/28 07:37:05;;;;;;;78.35;41.75;;;;;;;3.55;79.07;99472.84;1676962;85;21143;-77
2021/11/28 07:39:31;;;;;;;80.40;42.08;;;;;;;3.60;78.98;99473.47;1677152;85;21170;-78
2021/11/28 07:41:58;;;;;;;80.42;41.50;;;;;;;3.65;78.95;99474.94;1677538;85;21593;-77
2021/11/28 07:44:25;;;;;;;75.32;41.02;;;;;;;3.74;78.94;99473.05;1677770;85;21107;-78
2021/11/28 07:46:51;;;;;;;86.57;43.48;;;;;;;3.82;78.92;99485.88;1677552;85;22641;-78
2021/11/28 07:49:19;;;;;;;80.12;43.35;;;;;;;3.89;78.88;99486.55;1650266;86;21089;-78
2021/11/28 07:51:46;;;;;;;95.83;49.65;;;;;;;3.95;78.82;99489.33;1678062;85;21102;-77
2021/11/28 07:54:13;;;;;;;93.22;50.30;;;;;;;3.97;78.59;99492.86;1677874;85;21636;-78
2021/11/28 07:56:42;;;;;;;93.80;50.08;;;;;;;3.97;78.53;99493.29;1677890;85;21173;-78
2021/11/28 07:59:08;;;;;;;82.08;42.78;;;;;;;3.98;78.52;99492.04;1670246;85;21822;-76
2021/11/28 08:01:35;;;;;;;88.05;46.05;;;;;;;3.97;78.49;99492.86;1652825;85;21383;-77
2021/11/28 08:04:02;;;;;;;85.57;44.85;;;;;;;3.96;78.38;99495.02;1651754;85;21106;-82
2021/11/28 08:06:29;;;;;;;85.75;43.63;;;;;;;3.94;78.37;99496.69;1652899;85;21589;-82
2021/11/28 08:08:59;;;;;;;96.28;49.08;;;;;;;3.92;78.42;99494.42;1652866;85;21138;-87
2021/11/28 08:11:29;;;;;;;112.32;53.85;;;;;;;3.91;78.37;99495.28;1628883;86;22051;-86
2021/11/28 08:13:56;;;;;;;101.65;50.48;;;;;;;3.88;78.36;99493.88;1630122;86;21125;-87
2021/11/28 08:16:23;;;;;;;105.60;50.70;;;;;;;3.84;78.21;99497.22;1653199;85;21123;-87
2021/11/28 08:18:49;;;;;;;105.60;51.25;;;;;;;3.77;78.25;99502.63;1653031;85;21098;-87
2021/11/28 08:21:16;;;;;;;98.78;49.00;;;;;;;3.78;78.48;99499.21;1653346;85;21634;-88
2021/11/28 08:23:44;;;;;;;103.17;51.63;;;;;;;3.83;78.52;99500.64;1653364;85;21720;-87
2021/11/28 08:26:11;;;;;;;96.35;48.83;;;;;;;3.87;78.50;99492.13;1653006;85;21349;-83
2021/11/28 08:28:38;;;;;;;97.53;47.00;;;;;;;3.92;78.48;99494.42;1652608;85;21124;-82
2021/11/28 08:31:05;;;;;;;96.72;47.43;;;;;;;3.98;78.52;99497.64;1652632;85;21136;-82
2021/11/28 08:33:32;;;;;;;98.50;46.85;;;;;;;4.00;78.60;99487.77;1652910;85;21697;-83
2021/11/28 08:35:58;;;;;;;93.65;46.90;;;;;;;4.19;78.53;99496.14;1651188;86;21772;-89
2021/11/28 08:38:25;;;;;;;98.27;48.13;;;;;;;4.26;78.47;99491.16;1647219;86;21065;-88
2021/11/28 08:40:52;;;;;;;91.00;46.63;;;;;;;4.35;78.40;99498.77;1637232;86;21073;-82
2021/11/28 08:43:19;;;;;;;106.37;53.28;;;;;;;4.39;78.23;99497.63;1637218;87;21062;-83
2021/11/28 08:45:45;;;;;;;99.67;51.75;;;;;;;4.38;78.12;99502.36;1637222;86;21603;-84
2021/11/28 08:48:13;;;;;;;104.07;52.33;;;;;;;4.35;77.92;99497.05;1637148;86;21702;-85
2021/11/28 08:50:39;;;;;;;101.22;51.05;;;;;;;4.33;77.92;99496.11;1636841;86;21070;-83
2021/11/28 08:53:08;;;;;;;103.38;52.30;;;;;;;4.31;77.81;99495.62;1592635;87;21523;-82
2021/11/28 08:55:36;;;;;;;111.85;53.05;;;;;;;4.27;77.87;99495.52;1637181;87;21469;-82
2021/11/28 08:58:08;;;;;;;95.60;47.88;;;;;;;4.25;77.91;99504.13;1637391;87;21081;-83
2021/11/28 09:00:35;;;;;;;110.15;53.15;;;;;;;4.23;78.01;99500.17;1656427;86;21796;-83
2021/11/28 09:03:05;;;;;;;110.00;54.83;;;;;;;4.28;78.11;99503.81;1663642;86;21121;-82
2021/11/28 09:05:32;;;;;;;102.65;51.45;;;;;;;4.31;78.08;99510.81;1663605;86;21110;-77
2021/11/28 09:08:02;;;;;;;111.37;54.42;;;;;;;4.34;78.06;99511.35;1663110;86;22253;-78
2021/11/28 09:10:30;;;;;;;110.88;55.98;;;;;;;4.35;78.06;99513.97;1663822;86;21206;-78
2021/11/28 09:12:57;;;;;;;103.32;52.10;;;;;;;4.36;78.07;99519.66;1664000;86;21866;-79
2021/11/28 09:15:28;;;;;;;108.55;53.70;;;;;;;4.34;77.92;99523.95;1639111;86;21124;-78
2021/11/28 09:17:58;;;;;;;110.12;52.43;;;;;;;4.31;77.83;99525.58;1662986;86;21387;-76
2021/11/28 09:20:24;;;;;;;105.67;52.08;;;;;;;4.24;77.83;99524.09;1649236;86;21098;-79
2021/11/28 09:25:24;;;;;;;104.80;50.73;;;;;;;4.34;78.15;99523.08;1649058;86;21847;-78
2021/11/28 09:27:54;;;;;;;102.67;50.85;;;;;;;4.45;78.24;99522.55;1649439;85;22323;-78
2021/11/28 09:30:26;;;;;;;99.55;49.85;;;;;;;4.58;78.49;99509.86;1650582;84;21141;-78
2021/11/28 09:32:53;;;;;;;102.35;50.92;;;;;;;4.77;78.42;99515.20;1622913;88;21128;-79
2021/11/28 09:35:22;;;;;;;99.28;49.38;;;;;;;4.92;78.34;99515.63;1623062;88;21128;-79
2021/11/28 09:37:53;;;;;;;104.72;51.35;;;;;;;5.00;77.94;99518.45;1623150;88;21130;-79
2021/11/28 09:40:21;;;;;;;97.05;48.15;;;;;;;4.97;77.66;99519.66;1622434;88;21092;-77
2021/11/28 09:42:58;;;;;;;97.25;49.63;;;;;;;4.94;77.52;99516.98;1623022;88;21132;-78
2021/11/28 09:45:27;;;;;;;94.40;48.25;;;;;;;4.96;77.54;99522.69;1658666;84;21108;-78
2021/11/28 09:48:00;;;;;;;97.15;50.83;;;;;;;4.92;77.45;99526.06;1656232;85;21131;-78
2021/11/28 09:50:27;;;;;;;90.83;47.25;;;;;;;4.88;77.29;99529.43;1628812;86;22617;-78
2021/11/28 09:52:56;;;;;;;90.25;47.80;;;;;;;4.80;77.21;99525.27;1680512;85;21077;-79
2021/11/28 09:55:22;;;;;;;86.97;46.65;;;;;;;4.78;77.20;99522.17;1680391;85;21132;-79
2021/11/28 09:57:49;;;;;;;95.72;49.58;;;;;;;4.78;77.30;99522.17;1651332;86;21097;-78
2021/11/28 10:00:21;;;;;;;99.97;52.35;;;;;;;4.75;77.26;99516.86;1689149;84;21129;-78
2021/11/28 10:02:47;;;;;;;94.95;48.68;;;;;;;4.71;77.43;99508.50;1639477;86;21845;-78
2021/11/28 10:05:16;;;;;;;98.78;52.20;;;;;;;4.80;77.49;99521.36;1680329;84;21109;-78
2021/11/28 10:07:50;;;;;;;104.87;52.53;;;;;;;4.84;77.33;99513.20;1656878;85;21112;-77
2021/11/28 10:10:18;;;;;;;97.95;50.85;;;;;;;4.82;77.22;99504.07;1650935;86;21124;-79
2021/11/28 10:12:52;;;;;;;98.40;51.37;;;;;;;4.87;77.26;99502.45;1680914;84;21641;-79
2021/11/28 10:15:23;;;;;;;92.15;50.78;;;;;;;4.84;77.18;99505.39;1680834;85;21788;-78
2021/11/28 10:17:50;;;;;;;100.90;51.18;;;;;;;4.86;77.33;99508.52;1680516;85;21100;-79
2021/11/28 10:20:20;;;;;;;101.80;52.15;;;;;;;4.96;77.41;99508.78;1680822;83;21935;-79
2021/11/28 10:22:47;;;;;;;99.65;51.42;;;;;;;4.99;77.25;99504.53;1680831;83;21097;-79
2021/11/28 10:25:21;;;;;;;104.40;53.87;;;;;;;5.00;77.20;99504.11;1680681;85;21108;-79
2021/11/28 10:27:57;;;;;;;109.27;53.87;;;;;;;4.98;77.14;99499.27;1644444;85;21806;-80
2021/11/28 10:30:34;;;;;;;120.20;58.68;;;;;;;4.97;77.09;99496.19;1662915;86;21102;-79
2021/11/28 10:33:11;;;;;;;105.25;54.40;;;;;;;4.96;77.01;99497.92;1664188;86;21703;-79
2021/11/28 10:35:59;;;;;;;100.97;50.58;;;;;;;4.91;76.88;99493.42;1664284;86;21677;-79
2021/11/28 10:38:36;;;;;;;87.60;46.92;;;;;;;4.85;76.90;99498.92;1664005;86;21074;-78
2021/11/28 10:41:20;;;;;;;87.35;46.85;;;;;;;4.83;76.97;99501.03;1663888;86;21790;-78
2021/11/28 10:43:47;;;;;;;109.17;54.58;;;;;;;4.80;76.97;99501.81;1662770;86;21098;-80
2021/11/28 10:46:32;;;;;;;102.42;55.10;;;;;;;4.77;76.94;99499.14;1664055;86;21105;-80
2021/11/28 10:49:09;;;;;;;125.97;65.20;;;;;;;4.78;76.98;99503.92;1663574;86;21129;-80
2021/11/28 10:51:40;;;;;;;96.90;51.75;;;;;;;4.74;77.00;99504.25;1664100;86;21062;-80
2021/11/28 10:54:30;;;;;;;95.72;51.50;;;;;;;4.61;76.93;99494.32;1663649;86;21176;-80
2021/11/28 10:57:13;;;;;;;88.80;47.13;;;;;;;4.66;76.85;99509.25;1664104;86;21097;-80
2021/11/28 10:59:47;;;;;;;102.97;52.67;;;;;;;4.63;76.99;99505.24;1658859;85;21089;-80
2021/11/28 11:02:33;;;;;;;91.65;49.42;;;;;;;4.62;77.07;99507.41;1669133;85;21109;-80
2021/11/28 11:05:03;;;;;;;102.65;51.23;;;;;;;4.59;77.18;99503.39;1644916;85;21578;-79
2021/11/28 11:07:48;;;;;;;108.60;52.15;;;;;;;4.58;77.22;99511.16;1672773;85;21854;-80
2021/11/28 11:10:23;;;;;;;114.05;53.42;;;;;;;4.55;77.23;99511.97;1651414;86;21320;-79
2021/11/28 11:12:50;;;;;;;98.33;49.03;;;;;;;4.54;77.23;99510.62;1675798;84;21065;-79
2021/11/28 11:15:40;;;;;;;104.55;50.70;;;;;;;4.53;77.16;99517.98;1631783;84;21794;-78
2021/11/28 11:18:10;;;;;;;105.67;53.58;;;;;;;4.53;77.30;99526.68;1706498;84;21149;-78
2021/11/28 11:20:42;;;;;;;99.65;51.95;;;;;;;4.58;77.31;99521.59;1684782;84;22573;-78
2021/11/28 11:23:37;;;;;;;103.38;52.38;;;;;;;4.57;77.19;99526.35;1675520;84;21093;-78
2021/11/28 11:26:19;;;;;;;106.55;53.63;;;;;;;4.55;77.21;99525.43;1675685;85;21375;-80
2021/11/28 11:29:10;;;;;;;105.90;50.60;;;;;;;4.53;77.22;99525.80;1672520;85;21122;-79
2021/11/28 11:31:38;;;;;;;96.17;48.52;;;;;;;4.55;77.37;99520.22;1675439;85;21530;-78
2021/11/28 11:34:27;;;;;;;99.32;50.70;;;;;;;4.56;77.29;99518.05;1676018;85;21694;-78
2021/11/28 11:37:13;;;;;;;98.80;53.33;;;;;;;4.55;77.30;99519.79;1676133;85;21152;-79